createdAt,value
2023-02-06T00:02:24.401Z,104129.22
2023-02-06T00:05:02.152Z,104149.41
2023-02-06T00:07:36.740Z,104127.38
2023-02-06T00:10:04.800Z,104134.44
2023-02-06T00:12:38.626Z,104111.59
2023-02-06T00:15:12.982Z,104129.22
2023-02-06T00:17:45.973Z,104123.94
2023-02-06T00:20:20.922Z,104091.22
2023-02-06T00:22:48.228Z,104131.66
2023-02-06T00:25:23.427Z,104135.97
2023-02-06T00:28:18.400Z,104120.09
2023-02-06T00:31:12.765Z,104116.56
2023-02-06T00:33:40.204Z,104119.97
2023-02-06T00:39:02.727Z,104112.03
2023-02-06T00:41:58.798Z,104126.09
2023-02-06T00:44:25.822Z,104109.38
2023-02-06T00:47:00.795Z,104108.50
2023-02-06T00:49:39.395Z,104113.75
2023-02-06T00:52:15.662Z,104114.56
2023-02-06T00:54:42.344Z,104121.53
2023-02-06T00:57:15.676Z,104127.72
2023-02-06T00:59:48.658Z,104141.72
2023-02-06T01:05:05.831Z,104127.53
2023-02-06T01:07:33.050Z,104124.00
2023-02-06T01:10:06.983Z,104132.03
2023-02-06T01:12:41.645Z,104141.72
2023-02-06T01:15:20.709Z,104140.84
2023-02-06T01:17:47.552Z,104124.09
2023-02-06T01:20:21.935Z,104114.41
2023-02-06T01:22:48.824Z,104132.94
2023-02-06T01:25:25.911Z,104127.72
2023-02-06T01:27:59.289Z,104123.25
2023-02-06T01:30:32.801Z,104132.91
2023-02-06T01:32:59.684Z,104128.47
2023-02-06T01:35:37.006Z,104124.91
2023-02-06T01:38:04.024Z,104107.25
2023-02-06T01:40:37.896Z,104107.19
2023-02-06T01:43:17.886Z,104123.03
2023-02-06T01:45:55.665Z,104110.72
2023-02-06T01:48:32.770Z,104099.31
2023-02-06T01:51:07.697Z,104119.56
2023-02-06T01:53:38.636Z,104100.19
2023-02-06T01:56:21.449Z,104097.56
2023-02-06T01:58:54.844Z,104066.63
2023-02-06T02:01:28.761Z,104100.06
2023-02-06T02:04:02.344Z,104091.19
2023-02-06T02:06:52.711Z,104091.13
2023-02-06T02:09:26.753Z,104099.97
2023-02-06T02:11:59.839Z,104123.59
2023-02-06T02:14:33.905Z,104120.09
2023-02-06T02:17:27.854Z,104116.53
2023-02-06T02:20:13.003Z,104120.84
2023-02-06T02:22:48.810Z,104120.81
2023-02-06T02:25:58.107Z,104119.03
2023-02-06T02:28:56.898Z,104123.34
2023-02-06T02:31:53.778Z,104126.03
2023-02-06T02:34:54.781Z,104132.19
2023-02-06T02:37:36.567Z,104120.00
2023-02-06T02:40:34.750Z,104121.00
2023-02-06T02:43:07.429Z,104119.34
2023-02-06T02:45:43.805Z,104123.81
2023-02-06T02:48:19.449Z,104122.22
2023-02-06T02:50:58.017Z,104118.78
2023-02-06T02:53:25.820Z,104111.00
2023-02-06T02:56:00.018Z,104108.44
2023-02-06T02:58:34.269Z,104104.19
2023-02-06T03:01:11.745Z,104116.47
2023-02-06T03:03:46.859Z,104114.81
2023-02-06T03:06:48.761Z,104104.38
2023-02-06T03:09:33.608Z,104099.09
2023-02-06T03:12:19.716Z,104112.38
2023-02-06T03:15:14.064Z,104128.22
2023-02-06T03:18:01.912Z,104118.56
2023-02-06T03:20:32.009Z,104116.03
2023-02-06T03:23:07.993Z,104110.84
2023-02-06T03:25:49.504Z,104115.34
2023-02-06T03:28:30.770Z,104111.00
2023-02-06T03:31:05.158Z,104112.84
2023-02-06T03:33:44.837Z,104106.75
2023-02-06T03:36:56.462Z,104104.97
2023-02-06T03:39:29.689Z,104106.75
2023-02-06T03:42:06.726Z,104090.00
2023-02-06T03:44:46.740Z,104113.72
2023-02-06T03:47:22.786Z,104094.41
2023-02-06T03:49:57.727Z,104098.72
2023-02-06T03:52:35.778Z,104095.16
2023-02-06T03:55:12.916Z,104092.47
2023-02-06T03:57:48.772Z,104073.00
2023-02-06T04:00:22.856Z,104086.19
2023-02-06T04:03:03.946Z,104088.78
2023-02-06T04:05:37.850Z,104094.91
2023-02-06T04:08:07.975Z,104097.53
2023-02-06T04:10:35.061Z,104106.25
2023-02-06T04:13:08.857Z,104086.91
2023-02-06T04:15:38.951Z,104103.63
2023-02-06T04:18:12.844Z,104103.59
2023-02-06T04:20:41.105Z,104069.19
2023-02-06T04:23:16.676Z,104083.38
2023-02-06T04:25:46.432Z,104097.38
2023-02-06T04:28:26.739Z,104095.59
2023-02-06T04:31:03.125Z,104092.97
2023-02-06T04:33:37.010Z,104106.09
2023-02-06T04:36:14.204Z,104109.63
2023-02-06T04:38:47.822Z,104117.47
2023-02-06T04:41:14.837Z,104118.31
2023-02-06T04:43:47.829Z,104114.75
2023-02-06T04:46:41.627Z,104101.47
2023-02-06T04:49:47.800Z,104102.25
2023-02-06T04:52:20.769Z,104108.38
2023-02-06T04:54:47.672Z,104111.88
2023-02-06T04:57:14.336Z,104122.41
2023-02-06T04:59:47.823Z,104117.16
2023-02-06T05:02:40.047Z,104128.56
2023-02-06T05:05:08.600Z,104119.75
2023-02-06T05:07:42.823Z,104134.59
2023-02-06T05:10:10.357Z,104122.25
2023-02-06T05:12:43.799Z,104112.56
2023-02-06T05:15:11.103Z,104125.69
2023-02-06T05:17:44.882Z,104123.91
2023-02-06T05:20:12.260Z,104122.94
2023-02-06T05:22:45.826Z,104120.25
2023-02-06T05:25:31.057Z,104121.13
2023-02-06T05:28:06.940Z,104114.88
2023-02-06T05:30:40.782Z,104120.22
2023-02-06T05:33:10.445Z,104117.59
2023-02-06T05:35:46.732Z,104112.44
2023-02-06T05:38:16.602Z,104118.72
2023-02-06T05:40:49.823Z,104116.19
2023-02-06T05:43:16.751Z,104109.31
2023-02-06T05:45:49.883Z,104115.53
2023-02-06T05:48:23.941Z,104119.94
2023-02-06T05:53:44.594Z,104119.22
2023-02-06T05:56:31.822Z,104083.19
2023-02-06T05:58:58.682Z,104105.28
2023-02-06T06:01:35.844Z,104101.84
2023-02-06T06:04:03.004Z,104128.28
2023-02-06T06:06:46.829Z,104101.91
2023-02-06T06:09:19.919Z,104100.19
2023-02-06T06:14:39.872Z,104091.50
2023-02-06T06:17:06.904Z,104096.00
2023-02-06T06:19:39.799Z,104095.16
2023-02-06T06:22:10.599Z,104090.91
2023-02-06T06:24:43.808Z,104105.84
2023-02-06T06:27:23.926Z,104098.84
2023-02-06T06:30:03.809Z,104097.16
2023-02-06T06:32:30.637Z,104095.38
2023-02-06T06:35:03.953Z,104088.41
2023-02-06T06:37:36.809Z,104079.69
2023-02-06T06:40:10.927Z,104075.25
2023-02-06T06:42:37.971Z,104086.75
2023-02-06T06:45:11.834Z,104087.56
2023-02-06T06:47:44.793Z,104095.47
2023-02-06T06:50:11.916Z,104084.06
2023-02-06T06:52:44.865Z,104079.75
2023-02-06T06:55:11.671Z,104088.50
2023-02-06T06:57:44.864Z,104083.25
2023-02-06T07:00:12.734Z,104083.25
2023-02-06T07:05:34.438Z,104090.28
2023-02-06T07:08:07.824Z,104089.44
2023-02-06T07:10:34.973Z,104089.47
2023-02-06T07:13:07.882Z,104086.91
2023-02-06T07:15:40.977Z,104076.41
2023-02-06T07:18:07.765Z,104079.06
2023-02-06T07:20:44.747Z,104077.28
2023-02-06T07:23:11.592Z,104077.25
2023-02-06T07:25:45.026Z,104079.06
2023-02-06T07:28:17.985Z,104066.81
2023-02-06T07:31:04.601Z,104066.84
2023-02-06T07:33:31.472Z,104050.22
2023-02-06T07:38:38.819Z,104063.41
2023-02-06T07:41:12.814Z,104066.94
2023-02-06T07:43:39.788Z,104058.19
2023-02-06T07:48:59.372Z,104053.81
2023-02-06T07:51:44.864Z,104046.81
2023-02-06T07:54:12.576Z,104056.44
2023-02-06T07:56:51.029Z,104044.16
2023-02-06T07:59:25.555Z,104027.47
2023-02-06T08:02:10.332Z,104034.66
2023-02-06T08:04:51.773Z,104043.47
2023-02-06T08:07:25.920Z,104027.63
2023-02-06T08:09:59.035Z,104049.56
2023-02-06T08:12:26.813Z,104051.38
2023-02-06T08:14:59.952Z,104055.78
2023-02-06T08:17:27.318Z,104025.06
2023-02-06T08:19:54.429Z,104052.38
2023-02-06T08:22:34.850Z,104048.94
2023-02-06T08:25:01.774Z,104048.97
2023-02-06T08:27:39.672Z,104044.56
2023-02-06T08:30:21.396Z,104031.41
2023-02-06T08:32:48.455Z,104042.00
2023-02-06T08:35:25.329Z,104058.75
2023-02-06T08:37:59.010Z,104075.53
2023-02-06T08:40:34.847Z,104087.00
2023-02-06T08:43:02.295Z,104092.28
2023-02-06T08:45:29.190Z,104097.63
2023-02-06T08:48:02.888Z,104102.03
2023-02-06T08:50:29.870Z,104088.91
2023-02-06T08:53:02.981Z,104084.56
2023-02-06T08:55:33.315Z,104076.72
2023-02-06T08:58:06.934Z,104086.44
2023-02-06T09:00:36.864Z,104087.34
2023-02-06T09:03:20.982Z,104075.94
2023-02-06T09:08:45.911Z,104071.63
2023-02-06T09:14:21.871Z,104076.97
2023-02-06T09:17:00.652Z,104080.50
2023-02-06T09:19:33.916Z,104063.81
2023-02-06T09:22:00.690Z,104079.66
2023-02-06T09:24:37.090Z,104085.81
2023-02-06T09:27:35.966Z,104083.19
2023-02-06T09:30:11.911Z,104069.13
2023-02-06T09:32:44.901Z,104063.84
2023-02-06T09:35:18.040Z,104048.94
2023-02-06T09:37:51.864Z,104053.31
2023-02-06T09:40:27.573Z,104066.50
2023-02-06T09:43:08.931Z,104066.50
2023-02-06T09:45:36.193Z,104077.06
2023-02-06T09:48:38.940Z,104072.66
2023-02-06T09:51:37.231Z,104070.00
2023-02-06T09:54:15.952Z,104077.06
2023-02-06T09:56:57.048Z,104070.03
2023-02-06T09:59:35.872Z,104073.53
2023-02-06T10:02:55.873Z,104070.88
2023-02-06T10:05:51.675Z,104075.28
2023-02-06T10:09:03.984Z,104053.25
2023-02-06T10:14:51.004Z,104071.53
2023-02-06T10:17:25.943Z,104063.53
2023-02-06T10:20:09.007Z,104068.66
2023-02-06T10:22:46.847Z,104079.00
2023-02-06T10:25:36.177Z,104076.19
2023-02-06T10:28:43.976Z,104063.53
2023-02-06T10:31:32.174Z,104064.91
2023-02-06T10:34:38.247Z,104061.16
2023-02-06T10:37:25.973Z,104053.25
2023-02-06T10:40:33.268Z,104061.97
2023-02-06T10:43:23.046Z,104028.59
2023-02-06T10:46:30.987Z,104051.34
2023-02-06T10:49:12.587Z,104027.59
2023-02-06T10:52:05.136Z,104040.50
2023-02-06T10:54:47.305Z,104031.41
2023-02-06T10:57:44.420Z,104020.75
2023-02-06T11:00:50.087Z,104043.63
2023-02-06T11:03:29.175Z,104048.19
2023-02-06T11:05:59.666Z,104063.31
2023-02-06T11:08:43.922Z,104049.41
2023-02-06T11:11:37.577Z,104054.81
2023-02-06T11:14:26.509Z,104029.47
2023-02-06T11:16:53.864Z,104029.38
2023-02-06T11:19:32.893Z,104042.41
2023-02-06T11:22:12.032Z,104041.41
2023-02-06T11:24:47.567Z,104036.94
2023-02-06T11:27:27.126Z,104032.41
2023-02-06T11:30:15.125Z,104001.53
2023-02-06T11:33:03.682Z,104009.28
2023-02-06T11:35:39.763Z,104003.84
2023-02-06T11:38:29.951Z,104015.03
2023-02-06T11:41:18.709Z,103993.81
2023-02-06T11:43:56.897Z,103999.91
2023-02-06T11:46:51.722Z,103998.81
2023-02-06T11:50:00.939Z,103987.22
2023-02-06T11:52:41.707Z,103998.53
2023-02-06T11:55:48.907Z,103988.91
2023-02-06T11:58:15.661Z,104014.19
2023-02-06T12:01:29.073Z,104008.59
2023-02-06T12:04:29.933Z,104001.94
2023-02-06T12:07:33.921Z,103984.06
2023-02-06T12:10:10.415Z,103984.69
2023-02-06T12:12:42.475Z,103998.56
2023-02-06T12:15:47.033Z,103969.84
2023-02-06T12:18:19.467Z,103993.69
2023-02-06T12:20:59.904Z,103967.63
2023-02-06T12:23:40.087Z,103996.53
2023-02-06T12:26:45.443Z,103998.78
2023-02-06T12:29:37.958Z,104004.63
2023-02-06T12:32:26.022Z,103996.75
2023-02-06T12:35:00.740Z,104002.34
2023-02-06T12:37:48.941Z,104009.94
2023-02-06T12:40:58.001Z,104001.72
2023-02-06T12:43:31.995Z,104009.25
2023-02-06T12:46:58.982Z,104001.56
2023-02-06T12:49:38.952Z,103997.03
2023-02-06T12:52:17.023Z,103995.50
2023-02-06T12:55:07.325Z,103984.09
2023-02-06T12:57:35.912Z,103992.75
2023-02-06T13:00:27.931Z,103980.56
2023-02-06T13:03:22.949Z,103986.41
2023-02-06T13:05:55.829Z,103977.13
2023-02-06T13:08:45.927Z,103978.53
2023-02-06T13:11:48.886Z,103970.81
2023-02-06T13:14:30.970Z,103964.63
2023-02-06T13:17:33.112Z,103967.16
2023-02-06T13:20:12.062Z,103962.75
2023-02-06T13:22:57.919Z,103958.47
2023-02-06T13:25:55.752Z,103948.69
2023-02-06T13:28:29.024Z,103950.59
2023-02-06T13:31:13.538Z,103942.78
2023-02-06T13:33:52.099Z,103929.81
2023-02-06T13:36:33.988Z,103951.84
2023-02-06T13:39:15.378Z,103946.59
2023-02-06T13:44:33.545Z,103943.00
2023-02-06T13:47:35.128Z,103939.69
2023-02-06T13:50:28.466Z,103948.94
2023-02-06T13:53:32.967Z,103926.00
2023-02-06T13:56:37.802Z,103940.84
2023-02-06T13:59:22.196Z,103949.09
2023-02-06T14:01:49.550Z,103946.31
2023-02-06T14:04:55.287Z,103941.31
2023-02-06T14:07:37.194Z,103936.84
2023-02-06T14:10:18.479Z,103922.34
2023-02-06T14:13:08.338Z,103930.13
2023-02-06T14:16:39.067Z,103923.69
2023-02-06T14:19:05.924Z,103931.34
2023-02-06T14:22:12.279Z,103931.25
2023-02-06T14:25:32.491Z,103931.09
2023-02-06T14:28:31.039Z,103918.78
2023-02-06T14:31:40.130Z,103928.25
2023-02-06T14:34:34.167Z,103916.78
2023-02-06T14:37:25.112Z,103918.94
2023-02-06T14:39:56.896Z,103909.75
2023-02-06T14:42:44.048Z,103915.34
2023-02-06T14:45:41.040Z,103906.03
2023-02-06T14:49:00.102Z,103916.19
2023-02-06T14:52:05.161Z,103899.06
2023-02-06T14:54:45.198Z,103916.97
2023-02-06T14:57:34.126Z,103934.69
2023-02-06T15:00:27.096Z,103933.03
2023-02-06T15:03:36.991Z,103936.63
2023-02-06T15:08:50.609Z,103941.16
2023-02-06T15:11:41.975Z,103931.53
2023-02-06T15:14:24.928Z,103935.16
2023-02-06T15:17:13.374Z,103939.63
2023-02-06T15:19:40.030Z,103931.91
2023-02-06T15:22:21.181Z,103924.97
2023-02-06T15:25:38.530Z,103925.00
2023-02-06T15:28:17.084Z,103924.28
2023-02-06T15:30:57.300Z,103932.25
2023-02-06T15:33:27.943Z,103926.06
2023-02-06T15:36:03.064Z,103928.75
2023-02-06T15:38:32.360Z,103929.63
2023-02-06T15:41:13.044Z,103926.16
2023-02-06T15:43:41.774Z,103926.16
2023-02-06T15:46:15.247Z,103924.31
2023-02-06T15:48:56.024Z,103914.47
2023-02-06T15:51:52.177Z,103924.09
2023-02-06T15:54:29.053Z,103917.84
2023-02-06T15:57:28.483Z,103922.16
2023-02-06T16:00:04.077Z,103922.13
2023-02-06T16:02:38.257Z,103912.38
2023-02-06T16:05:13.354Z,103901.88
2023-02-06T16:07:47.171Z,103906.38
2023-02-06T16:10:29.071Z,103915.28
2023-02-06T16:13:00.220Z,103908.34
2023-02-06T16:15:41.066Z,103918.25
2023-02-06T16:18:31.582Z,103920.22
2023-02-06T16:21:30.068Z,103925.72
2023-02-06T16:24:03.407Z,103919.72
2023-02-06T16:26:49.072Z,103918.16
2023-02-06T16:29:42.130Z,103907.81
2023-02-06T16:32:29.021Z,103915.00
2023-02-06T16:34:56.458Z,103909.88
2023-02-06T16:37:32.059Z,103924.06
2023-02-06T16:39:58.839Z,103912.75
2023-02-06T16:42:39.042Z,103926.91
2023-02-06T16:45:23.631Z,103928.66
2023-02-06T16:47:58.180Z,103925.81
2023-02-06T16:50:25.021Z,103925.50
2023-02-06T16:53:01.076Z,103927.53
2023-02-06T16:55:28.967Z,103923.53
2023-02-06T16:58:06.035Z,103908.13
2023-02-06T17:00:40.108Z,103916.28
2023-02-06T17:03:13.057Z,103923.50
2023-02-06T17:05:48.112Z,103919.88
2023-02-06T17:08:23.289Z,103925.91
2023-02-06T17:10:56.985Z,103923.13
2023-02-06T17:13:31.125Z,103920.78
2023-02-06T17:15:58.032Z,103920.22
2023-02-06T17:18:25.001Z,103925.25
2023-02-06T17:21:00.264Z,103915.50
2023-02-06T17:23:27.007Z,103932.38
2023-02-06T17:26:00.148Z,103932.78
2023-02-06T17:28:56.129Z,103924.22
2023-02-06T17:31:38.112Z,103920.41
2023-02-06T17:34:11.138Z,103923.69
2023-02-06T17:36:46.095Z,103931.75
2023-02-06T17:39:13.447Z,103928.44
2023-02-06T17:42:06.091Z,103931.94
2023-02-06T17:44:33.108Z,103926.16
2023-02-06T17:47:06.239Z,103933.69
2023-02-06T17:49:33.112Z,103932.97
2023-02-06T17:51:59.812Z,103936.31
2023-02-06T17:54:33.152Z,103918.44
2023-02-06T17:57:06.130Z,103912.13
2023-02-06T17:59:39.182Z,103916.00
2023-02-06T18:02:06.278Z,103925.66
2023-02-06T18:04:39.106Z,103911.69
2023-02-06T18:07:07.545Z,103912.41
2023-02-06T18:09:42.289Z,103915.97
2023-02-06T18:12:09.992Z,103904.84
2023-02-06T18:14:43.073Z,103911.84
2023-02-06T18:17:20.674Z,103911.97
2023-02-06T18:19:57.476Z,103910.63
2023-02-06T18:22:27.184Z,103898.50
2023-02-06T18:25:13.270Z,103891.28
2023-02-06T18:27:49.475Z,103893.69
2023-02-06T18:30:29.607Z,103901.22
2023-02-06T18:32:56.707Z,103912.13
2023-02-06T18:35:26.910Z,103912.50
2023-02-06T18:38:02.278Z,103906.59
2023-02-06T18:40:35.178Z,103900.50
2023-02-06T18:43:09.287Z,103898.25
2023-02-06T18:45:43.760Z,103885.97
2023-02-06T18:48:21.290Z,103875.88
2023-02-06T18:50:48.912Z,103896.25
2023-02-06T18:53:22.412Z,103890.03
2023-02-06T18:56:02.736Z,103882.38
2023-02-06T18:58:36.186Z,103896.59
2023-02-06T19:01:10.474Z,103893.25
2023-02-06T19:04:03.464Z,103875.03
2023-02-06T19:06:47.795Z,103903.00
2023-02-06T19:09:22.372Z,103883.97
2023-02-06T19:11:49.217Z,103891.88
2023-02-06T19:14:24.108Z,103905.78
2023-02-06T19:16:52.651Z,103888.13
2023-02-06T19:19:26.334Z,103894.75
2023-02-06T19:22:00.188Z,103906.09
2023-02-06T19:24:35.225Z,103904.53
2023-02-06T19:27:09.238Z,103910.75
2023-02-06T19:29:49.255Z,103909.31
2023-02-06T19:32:22.361Z,103899.56
2023-02-06T19:34:49.105Z,103906.00
2023-02-06T19:37:22.124Z,103918.25
2023-02-06T19:39:48.965Z,103907.78
2023-02-06T19:42:23.270Z,103910.25
2023-02-06T19:44:54.933Z,103905.78
2023-02-06T19:47:32.290Z,103914.19
2023-02-06T19:49:59.171Z,103918.41
2023-02-06T19:52:35.520Z,103919.41
2023-02-06T19:55:02.590Z,103930.88
2023-02-06T19:57:29.276Z,103924.81
2023-02-06T20:00:02.163Z,103923.25
2023-02-06T20:02:29.018Z,103922.56
2023-02-06T20:05:02.798Z,103922.09
2023-02-06T20:07:30.678Z,103916.59
2023-02-06T20:10:04.279Z,103927.91
2023-02-06T20:12:31.679Z,103923.63
2023-02-06T20:15:16.486Z,103924.09
2023-02-06T20:17:43.287Z,103920.72
2023-02-06T20:20:40.817Z,103908.59
2023-02-06T20:23:07.685Z,103900.44
2023-02-06T20:25:50.278Z,103919.91
2023-02-06T20:28:17.326Z,103905.06
2023-02-06T20:33:38.885Z,103918.25
2023-02-06T20:36:24.283Z,103894.78
2023-02-06T20:39:03.387Z,103904.38
2023-02-06T20:41:34.610Z,103878.47
2023-02-06T20:44:08.630Z,103892.47
2023-02-06T20:47:14.371Z,103906.06
2023-02-06T20:50:00.245Z,103908.38
2023-02-06T20:52:34.220Z,103897.84
2023-02-06T20:55:01.782Z,103899.97
2023-02-06T20:57:35.499Z,103902.19
2023-02-06T21:00:12.297Z,103905.47
2023-02-06T21:02:45.057Z,103903.19
2023-02-06T21:05:48.648Z,103922.22
2023-02-06T21:08:24.822Z,103904.41
2023-02-06T21:10:59.243Z,103920.59
2023-02-06T21:13:26.160Z,103905.91
2023-02-06T21:16:01.226Z,103920.91
2023-02-06T21:18:34.522Z,103917.63
2023-02-06T21:21:32.759Z,103902.03
2023-02-06T21:24:01.906Z,103913.78
2023-02-06T21:26:36.234Z,103907.88
2023-02-06T21:29:10.437Z,103928.78
2023-02-06T21:32:03.853Z,103932.41
2023-02-06T21:34:42.116Z,103925.69
2023-02-06T21:37:15.186Z,103919.00
2023-02-06T21:39:42.153Z,103922.59
2023-02-06T21:42:17.138Z,103928.28
2023-02-06T21:44:50.610Z,103928.78
2023-02-06T21:47:24.396Z,103919.19
2023-02-06T21:49:51.324Z,103914.31
2023-02-06T21:52:24.416Z,103924.25
2023-02-06T21:55:00.159Z,103906.25
2023-02-06T21:57:27.089Z,103903.31
2023-02-06T22:00:00.184Z,103900.56
2023-02-06T22:02:44.979Z,103898.66
2023-02-06T22:05:18.672Z,103881.91
2023-02-06T22:07:48.268Z,103893.59
2023-02-06T22:10:25.367Z,103885.16
2023-02-06T22:13:05.380Z,103881.91
2023-02-06T22:15:38.078Z,103892.72
2023-02-06T22:18:12.206Z,103886.19
2023-02-06T22:20:45.384Z,103893.75
2023-02-06T22:23:19.186Z,103885.25
2023-02-06T22:25:55.373Z,103884.56
2023-02-06T22:28:22.211Z,103875.16
2023-02-06T22:31:31.302Z,103869.84
2023-02-06T22:34:06.205Z,103870.03
2023-02-06T22:39:13.910Z,103868.00
2023-02-06T22:41:55.447Z,103873.81
2023-02-06T22:44:25.079Z,103879.75
2023-02-06T22:47:00.552Z,103878.28
2023-02-06T22:49:45.111Z,103882.47
2023-02-06T22:52:40.228Z,103880.63
2023-02-06T22:55:16.688Z,103887.81
2023-02-06T22:57:43.321Z,103884.31
2023-02-06T23:00:18.257Z,103885.78
2023-02-06T23:02:50.515Z,103895.25
2023-02-06T23:05:24.457Z,103896.78
2023-02-06T23:07:51.720Z,103906.38
2023-02-06T23:10:25.640Z,103893.25
2023-02-06T23:12:52.508Z,103912.38
2023-02-06T23:15:32.280Z,103930.22
2023-02-06T23:17:58.960Z,103907.47
2023-02-06T23:20:32.413Z,103929.41
2023-02-06T23:22:59.085Z,103907.38
2023-02-06T23:25:32.393Z,103938.09
2023-02-06T23:28:05.309Z,103932.75
2023-02-06T23:30:52.294Z,103924.81
2023-02-06T23:33:26.191Z,103923.88
2023-02-06T23:35:52.989Z,103924.72
2023-02-06T23:38:26.218Z,103930.78
2023-02-06T23:41:24.825Z,103922.88
2023-02-06T23:44:00.349Z,103912.25
2023-02-06T23:46:40.302Z,103895.50
2023-02-06T23:49:39.530Z,103899.84
2023-02-06T23:52:06.318Z,103905.06
2023-02-06T23:54:39.327Z,103921.72
2023-02-06T23:57:13.231Z,103905.84
2023-02-06T23:59:46.375Z,103948.88
